createdAt,value
2023-03-05T00:00:28.042Z,4.42
2023-03-05T00:03:00.340Z,4.40
2023-03-05T00:05:29.967Z,4.36
2023-03-05T00:07:59.568Z,4.34
2023-03-05T00:10:29.154Z,4.33
2023-03-05T00:12:58.729Z,4.30
2023-03-05T00:15:28.369Z,4.27
2023-03-05T00:18:00.531Z,4.25
2023-03-05T00:20:30.166Z,4.22
2023-03-05T00:22:59.729Z,4.21
2023-03-05T00:25:29.672Z,4.18
2023-03-05T00:27:59.728Z,4.17
2023-03-05T00:30:29.403Z,4.17
2023-03-05T00:33:01.977Z,4.16
2023-03-05T00:35:31.689Z,4.16
2023-03-05T00:38:01.708Z,4.13
2023-03-05T00:40:31.572Z,4.12
2023-03-05T00:43:01.280Z,4.10
2023-03-05T00:45:30.879Z,4.09
2023-03-05T00:48:03.421Z,4.09
2023-03-05T00:50:33.023Z,4.09
2023-03-05T00:53:02.621Z,4.09
2023-03-05T00:55:32.327Z,4.09
2023-03-05T00:58:01.889Z,4.10
2023-03-05T01:00:31.564Z,4.11
2023-03-05T01:03:04.029Z,4.11
2023-03-05T01:05:34.085Z,4.09
2023-03-05T01:08:03.709Z,4.09
2023-03-05T01:10:33.326Z,4.03
2023-03-05T01:13:03.439Z,4.02
2023-03-05T01:15:33.048Z,3.99
2023-03-05T01:18:05.215Z,3.99
2023-03-05T01:20:34.815Z,3.99
2023-03-05T01:23:04.446Z,3.99
2023-03-05T01:25:34.032Z,3.99
2023-03-05T01:28:03.647Z,3.99
2023-03-05T01:30:33.629Z,4.00
2023-03-05T01:33:06.192Z,3.98
2023-03-05T01:35:35.869Z,3.98
2023-03-05T01:38:05.846Z,3.99
2023-03-05T01:40:35.420Z,3.99
2023-03-05T01:43:22.079Z,3.96
2023-03-05T01:46:22.114Z,3.93
2023-03-05T01:48:56.575Z,3.89
2023-03-05T01:51:28.795Z,3.87
2023-03-05T01:53:59.746Z,3.86
2023-03-05T01:56:30.640Z,3.85
2023-03-05T01:59:03.641Z,3.85
2023-03-05T02:01:41.614Z,3.86
2023-03-05T02:04:17.065Z,3.84
2023-03-05T02:06:47.773Z,3.83
2023-03-05T02:09:17.429Z,3.80
2023-03-05T02:11:47.099Z,3.76
2023-03-05T02:14:16.659Z,3.74
2023-03-05T02:16:46.431Z,3.70
2023-03-05T02:19:18.715Z,3.70
2023-03-05T02:21:52.315Z,3.68
2023-03-05T02:24:36.404Z,3.67
2023-03-05T02:27:06.739Z,3.66
2023-03-05T02:29:37.131Z,3.65
2023-03-05T02:32:08.651Z,3.64
2023-03-05T02:34:38.439Z,3.63
2023-03-05T02:37:10.758Z,3.62
2023-03-05T02:39:41.354Z,3.61
2023-03-05T02:42:12.516Z,3.60
2023-03-05T02:44:42.111Z,3.59
2023-03-05T02:47:11.682Z,3.57
2023-03-05T02:49:41.367Z,3.56
2023-03-05T02:52:13.636Z,3.56
2023-03-05T02:54:44.006Z,3.55
2023-03-05T02:57:13.711Z,3.54
2023-03-05T02:59:43.422Z,3.55
2023-03-05T03:02:13.082Z,3.52
2023-03-05T03:04:42.740Z,3.53
2023-03-05T03:07:15.471Z,3.52
2023-03-05T03:09:45.557Z,3.53
2023-03-05T03:12:15.469Z,3.53
2023-03-05T03:14:45.343Z,3.53
2023-03-05T03:17:16.254Z,3.53
2023-03-05T03:19:46.488Z,3.52
2023-03-05T03:22:18.974Z,3.53
2023-03-05T03:24:48.537Z,3.52
2023-03-05T03:27:18.085Z,3.52
2023-03-05T03:29:47.634Z,3.52
2023-03-05T03:32:17.371Z,3.51
2023-03-05T03:34:48.144Z,3.52
2023-03-05T03:37:20.339Z,3.50
2023-03-05T03:39:49.871Z,3.49
2023-03-05T03:42:20.136Z,3.48
2023-03-05T03:44:50.019Z,3.49
2023-03-05T03:47:19.868Z,3.49
2023-03-05T03:49:49.487Z,3.49
2023-03-05T03:52:22.973Z,3.49
2023-03-05T03:54:53.153Z,3.49
2023-03-05T03:57:22.840Z,3.49
2023-03-05T03:59:52.759Z,3.48
2023-03-05T04:02:22.375Z,3.49
2023-03-05T04:04:51.949Z,3.51
2023-03-05T04:07:24.182Z,3.52
2023-03-05T04:09:53.902Z,3.52
2023-03-05T04:12:23.929Z,3.52
2023-03-05T04:14:53.953Z,3.50
2023-03-05T04:17:23.566Z,3.49
2023-03-05T04:19:53.128Z,3.47
2023-03-05T04:22:25.355Z,3.47
2023-03-05T04:24:54.949Z,3.45
2023-03-05T04:27:24.563Z,3.43
2023-03-05T04:29:54.101Z,3.43
2023-03-05T04:32:24.191Z,3.41
2023-03-05T04:34:54.118Z,3.38
2023-03-05T04:37:26.728Z,3.36
2023-03-05T04:39:56.483Z,3.37
2023-03-05T04:42:26.227Z,3.35
2023-03-05T04:44:55.824Z,3.37
2023-03-05T04:47:25.467Z,3.35
2023-03-05T04:49:55.258Z,3.35
2023-03-05T04:52:27.425Z,3.35
2023-03-05T04:54:57.090Z,3.34
2023-03-05T04:57:26.783Z,3.32
2023-03-05T04:59:56.419Z,3.32
2023-03-05T05:02:26.031Z,3.32
2023-03-05T05:04:56.090Z,3.30
2023-03-05T05:07:29.907Z,3.29
2023-03-05T05:09:59.464Z,3.27
2023-03-05T05:12:31.640Z,3.25
2023-03-05T05:15:01.266Z,3.23
2023-03-05T05:17:32.994Z,3.23
2023-03-05T05:20:04.629Z,3.22
2023-03-05T05:22:37.731Z,3.23
2023-03-05T05:25:07.972Z,3.24
2023-03-05T05:27:37.629Z,3.22
2023-03-05T05:30:08.302Z,3.22
2023-03-05T05:32:38.219Z,3.21
2023-03-05T05:35:08.889Z,3.20
2023-03-05T05:37:41.046Z,3.18
2023-03-05T05:40:12.238Z,3.18
2023-03-05T05:42:42.042Z,3.18
2023-03-05T05:45:13.821Z,3.19
2023-03-05T05:47:43.506Z,3.20
2023-03-05T05:50:14.609Z,3.22
2023-03-05T05:52:46.773Z,3.20
2023-03-05T05:55:16.614Z,3.19
2023-03-05T05:57:46.310Z,3.18
2023-03-05T06:00:17.548Z,3.16
2023-03-05T06:02:47.194Z,3.15
2023-03-05T06:05:17.676Z,3.14
2023-03-05T06:07:49.844Z,3.15
2023-03-05T06:10:19.551Z,3.16
2023-03-05T06:12:49.167Z,3.15
2023-03-05T06:15:19.709Z,3.15
2023-03-05T06:17:49.623Z,3.15
2023-03-05T06:20:19.588Z,3.14
2023-03-05T06:22:51.780Z,3.15
2023-03-05T06:25:21.605Z,3.14
2023-03-05T06:27:51.578Z,3.15
2023-03-05T06:30:21.502Z,3.15
2023-03-05T06:32:51.092Z,3.15
2023-03-05T06:35:20.800Z,3.17
2023-03-05T06:37:53.053Z,3.17
2023-03-05T06:40:22.789Z,3.18
2023-03-05T06:42:52.424Z,3.21
2023-03-05T06:45:21.997Z,3.21
2023-03-05T06:47:51.837Z,3.25
2023-03-05T06:50:21.467Z,3.26
2023-03-05T06:52:54.543Z,3.29
2023-03-05T06:55:24.285Z,3.33
2023-03-05T06:57:53.870Z,3.37
2023-03-05T07:00:29.621Z,3.42
2023-03-05T07:02:59.758Z,3.47
2023-03-05T07:05:29.419Z,3.53
2023-03-05T07:08:01.620Z,3.61
2023-03-05T07:10:31.681Z,3.68
2023-03-05T07:13:01.316Z,3.77
2023-03-05T07:15:30.929Z,3.85
2023-03-05T07:18:00.558Z,3.91
2023-03-05T07:20:30.249Z,3.96
2023-03-05T07:23:02.429Z,4.03
2023-03-05T07:25:32.196Z,4.13
2023-03-05T07:28:01.815Z,4.22
2023-03-05T07:30:31.429Z,4.30
2023-03-05T07:33:02.132Z,4.34
2023-03-05T07:35:31.833Z,4.37
2023-03-05T07:38:04.072Z,4.36
2023-03-05T07:40:33.685Z,4.37
2023-03-05T07:43:03.307Z,4.38
2023-03-05T07:45:37.236Z,4.36
2023-03-05T07:48:07.015Z,4.37
2023-03-05T07:50:36.645Z,4.40
2023-03-05T07:53:08.833Z,4.43
2023-03-05T07:55:38.608Z,4.48
2023-03-05T07:58:08.208Z,4.51
2023-03-05T08:00:37.804Z,4.55
2023-03-05T08:03:07.498Z,4.58
2023-03-05T08:05:37.080Z,4.61
2023-03-05T08:08:09.481Z,4.63
2023-03-05T08:10:39.908Z,4.64
2023-03-05T08:13:09.776Z,4.66
2023-03-05T08:15:40.576Z,4.69
2023-03-05T08:18:10.242Z,4.77
2023-03-05T08:20:40.021Z,4.82
2023-03-05T08:23:12.738Z,4.88
2023-03-05T08:25:42.335Z,4.91
2023-03-05T08:28:12.066Z,4.94
2023-03-05T08:30:43.347Z,4.99
2023-03-05T08:33:12.920Z,5.03
2023-03-05T08:35:42.697Z,5.06
2023-03-05T08:38:14.946Z,5.12
2023-03-05T08:40:44.563Z,5.12
2023-03-05T08:43:15.211Z,5.09
2023-03-05T08:45:44.860Z,5.06
2023-03-05T08:48:14.437Z,5.05
2023-03-05T08:50:44.474Z,5.04
2023-03-05T08:53:16.710Z,5.07
2023-03-05T08:55:46.380Z,5.09
2023-03-05T08:58:15.982Z,5.15
2023-03-05T09:00:45.602Z,5.20
2023-03-05T09:03:15.297Z,5.27
2023-03-05T09:05:44.979Z,5.30
2023-03-05T09:08:17.787Z,5.35
2023-03-05T09:10:48.567Z,5.39
2023-03-05T09:13:18.134Z,5.46
2023-03-05T09:15:47.720Z,5.51
2023-03-05T09:18:17.279Z,5.50
2023-03-05T09:20:46.875Z,5.47
2023-03-05T09:23:19.067Z,5.45
2023-03-05T09:25:49.499Z,5.42
2023-03-05T09:28:19.314Z,5.37
2023-03-05T09:30:48.937Z,5.34
2023-03-05T09:33:18.535Z,5.34
2023-03-05T09:35:48.819Z,5.36
2023-03-05T09:38:21.675Z,5.41
2023-03-05T09:40:58.121Z,5.49
2023-03-05T09:43:34.036Z,5.62
2023-03-05T09:46:20.935Z,5.84
2023-03-05T09:48:56.399Z,6.04
2023-03-05T09:51:28.005Z,6.22
2023-03-05T09:54:05.289Z,6.35
2023-03-05T09:56:37.993Z,6.38
2023-03-05T09:59:17.656Z,6.32
2023-03-05T10:01:48.022Z,6.20
2023-03-05T10:04:19.688Z,6.07
2023-03-05T10:06:53.412Z,6.03
2023-03-05T10:09:39.467Z,6.05
2023-03-05T10:12:13.694Z,6.00
2023-03-05T10:14:43.574Z,5.94
2023-03-05T10:17:43.817Z,5.85
2023-03-05T10:20:55.003Z,5.82
2023-03-05T10:23:30.404Z,5.89
2023-03-05T10:26:11.037Z,6.00
2023-03-05T10:28:46.653Z,6.06
2023-03-05T10:31:26.907Z,6.01
2023-03-05T10:34:04.407Z,5.89
2023-03-05T10:36:46.956Z,5.78
2023-03-05T10:39:45.045Z,5.72
2023-03-05T10:42:24.866Z,5.80
2023-03-05T10:44:56.276Z,5.91
2023-03-05T10:47:31.407Z,6.04
2023-03-05T10:50:02.332Z,6.25
2023-03-05T10:52:34.835Z,6.50
2023-03-05T10:55:04.614Z,6.65
2023-03-05T10:57:36.854Z,6.72
2023-03-05T11:00:16.085Z,6.76
2023-03-05T11:03:00.674Z,6.78
2023-03-05T11:05:42.547Z,6.80
2023-03-05T11:08:27.517Z,6.87
2023-03-05T11:11:15.922Z,6.95
2023-03-05T11:13:59.965Z,7.12
2023-03-05T11:16:31.002Z,7.27
2023-03-05T11:19:20.218Z,7.43
2023-03-05T11:21:51.125Z,7.54
2023-03-05T11:24:21.857Z,7.64
2023-03-05T11:26:53.520Z,7.82
2023-03-05T11:29:28.423Z,7.96
2023-03-05T11:31:58.727Z,8.09
2023-03-05T11:34:35.512Z,8.24
2023-03-05T11:37:08.097Z,8.35
2023-03-05T11:39:41.868Z,8.44
2023-03-05T11:42:15.883Z,8.57
2023-03-05T11:44:50.824Z,8.74
2023-03-05T11:47:26.791Z,8.90
2023-03-05T11:50:03.826Z,9.05
2023-03-05T11:52:49.155Z,9.07
2023-03-05T11:55:20.976Z,8.97
2023-03-05T11:57:55.786Z,8.88
2023-03-05T12:00:32.024Z,8.79
2023-03-05T12:03:05.962Z,8.76
2023-03-05T12:05:37.067Z,8.70
2023-03-05T12:08:07.117Z,8.62
2023-03-05T12:10:37.374Z,8.58
2023-03-05T12:13:10.475Z,8.58
2023-03-05T12:16:06.677Z,8.58
2023-03-05T12:18:42.785Z,8.54
2023-03-05T12:21:18.887Z,8.47
2023-03-05T12:23:51.372Z,8.45
2023-03-05T12:26:21.986Z,8.46
2023-03-05T12:28:59.820Z,8.49
2023-03-05T12:31:41.526Z,8.56
2023-03-05T12:34:39.325Z,8.60
2023-03-05T12:37:13.015Z,8.51
2023-03-05T12:40:01.177Z,8.36
2023-03-05T12:42:49.676Z,8.14
2023-03-05T12:45:39.932Z,7.89
2023-03-05T12:48:44.982Z,7.68
2023-03-05T12:51:17.989Z,7.47
2023-03-05T12:53:47.986Z,7.34
2023-03-05T12:56:25.082Z,7.26
2023-03-05T12:58:58.606Z,7.23
2023-03-05T13:01:43.591Z,7.23
2023-03-05T13:04:21.542Z,7.20
2023-03-05T13:07:01.199Z,7.21
2023-03-05T13:09:35.046Z,7.28
2023-03-05T13:12:07.411Z,7.38
2023-03-05T13:14:43.524Z,7.46
2023-03-05T13:17:30.254Z,7.56
2023-03-05T13:20:06.206Z,7.66
2023-03-05T13:22:39.046Z,7.72
2023-03-05T13:25:20.768Z,7.74
2023-03-05T13:27:50.484Z,7.69
2023-03-05T13:30:27.411Z,7.63
2023-03-05T13:33:02.919Z,7.55
2023-03-05T13:35:36.080Z,7.49
2023-03-05T13:38:05.737Z,7.47
2023-03-05T13:40:35.681Z,7.51
2023-03-05T13:43:16.959Z,7.52
2023-03-05T13:45:46.627Z,7.57
2023-03-05T13:48:22.137Z,7.60
2023-03-05T13:50:59.867Z,7.62
2023-03-05T13:53:31.042Z,7.63
2023-03-05T13:56:02.023Z,7.57
2023-03-05T13:58:49.521Z,7.52
2023-03-05T14:01:27.981Z,7.47
2023-03-05T14:04:00.760Z,7.45
2023-03-05T14:06:33.551Z,7.43
2023-03-05T14:09:08.848Z,7.36
2023-03-05T14:11:38.760Z,7.33
2023-03-05T14:14:11.289Z,7.31
2023-03-05T14:16:41.030Z,7.27
2023-03-05T14:19:34.777Z,7.26
2023-03-05T14:22:08.034Z,7.23
2023-03-05T14:24:37.676Z,7.26
2023-03-05T14:27:13.459Z,7.28
2023-03-05T14:29:47.320Z,7.28
2023-03-05T14:32:31.278Z,7.32
2023-03-05T14:35:02.549Z,7.33
2023-03-05T14:37:37.034Z,7.31
2023-03-05T14:40:08.259Z,7.26
2023-03-05T14:42:39.577Z,7.24
2023-03-05T14:45:17.224Z,7.21
2023-03-05T14:47:47.340Z,7.20
2023-03-05T14:50:18.950Z,7.21
2023-03-05T14:52:52.963Z,7.22
2023-03-05T14:55:24.764Z,7.23
2023-03-05T14:57:55.235Z,7.21
2023-03-05T15:00:26.955Z,7.18
2023-03-05T15:02:57.989Z,7.14
2023-03-05T15:05:28.168Z,7.13
2023-03-05T15:08:00.722Z,7.13
2023-03-05T15:10:30.363Z,7.10
2023-03-05T15:13:00.060Z,7.01
2023-03-05T15:15:30.062Z,6.95
2023-03-05T15:18:00.198Z,6.90
2023-03-05T15:20:32.261Z,6.86
2023-03-05T15:23:04.434Z,6.82
2023-03-05T15:25:34.202Z,6.74
2023-03-05T15:28:03.818Z,6.69
2023-03-05T15:30:35.393Z,6.63
2023-03-05T15:33:07.274Z,6.54
2023-03-05T15:35:37.078Z,6.46
2023-03-05T15:38:09.428Z,6.35
2023-03-05T15:40:39.078Z,6.24
2023-03-05T15:43:08.719Z,6.18
2023-03-05T15:45:38.282Z,6.13
2023-03-05T15:48:08.376Z,6.10
2023-03-05T15:50:38.164Z,6.09
2023-03-05T15:53:10.859Z,6.08
2023-03-05T15:55:41.221Z,6.06
2023-03-05T15:58:10.860Z,6.03
2023-03-05T16:00:40.822Z,6.01
2023-03-05T16:03:10.566Z,6.01
2023-03-05T16:05:40.563Z,6.00
2023-03-05T16:08:12.908Z,5.99
2023-03-05T16:10:43.108Z,5.98
2023-03-05T16:13:14.778Z,5.96
2023-03-05T16:15:44.692Z,5.98
2023-03-05T16:18:17.633Z,5.97
2023-03-05T16:20:47.747Z,5.98
2023-03-05T16:23:21.615Z,5.98
2023-03-05T16:25:51.210Z,5.98
2023-03-05T16:28:20.834Z,5.97
2023-03-05T16:30:56.147Z,5.97
2023-03-05T16:33:26.050Z,5.95
2023-03-05T16:36:20.890Z,5.92
2023-03-05T16:38:53.949Z,5.88
2023-03-05T16:41:24.461Z,5.86
2023-03-05T16:43:56.383Z,5.86
2023-03-05T16:46:26.115Z,5.85
2023-03-05T16:48:55.910Z,5.85
2023-03-05T16:51:25.669Z,5.85
2023-03-05T16:53:57.871Z,5.86
2023-03-05T16:56:27.572Z,5.83
2023-03-05T16:58:58.257Z,5.82
2023-03-05T17:01:30.274Z,5.79
2023-03-05T17:04:00.860Z,5.74
2023-03-05T17:06:32.053Z,5.70
2023-03-05T17:09:04.593Z,5.65
2023-03-05T17:11:34.249Z,5.59
2023-03-05T17:14:04.083Z,5.57
2023-03-05T17:16:33.767Z,5.56
2023-03-05T17:19:03.413Z,5.55
2023-03-05T17:21:33.110Z,5.53
2023-03-05T17:24:05.326Z,5.52
2023-03-05T17:26:36.413Z,5.50
2023-03-05T17:29:06.513Z,5.51
2023-03-05T17:31:37.145Z,5.51
2023-03-05T17:34:06.768Z,5.49
2023-03-05T17:36:36.395Z,5.45
2023-03-05T17:39:08.849Z,5.41
2023-03-05T17:41:38.457Z,5.36
2023-03-05T17:44:08.099Z,5.34
2023-03-05T17:46:37.687Z,5.28
2023-03-05T17:49:07.391Z,5.23
2023-03-05T17:51:37.836Z,5.20
2023-03-05T17:54:10.072Z,5.17
2023-03-05T17:56:39.655Z,5.15
2023-03-05T17:59:09.508Z,5.12
2023-03-05T18:01:39.145Z,5.12
2023-03-05T18:04:08.774Z,5.11
2023-03-05T18:06:38.492Z,5.11
2023-03-05T18:09:10.719Z,5.12
2023-03-05T18:11:40.841Z,5.11
2023-03-05T18:14:10.481Z,5.12
2023-03-05T18:16:40.190Z,5.12
2023-03-05T18:19:10.825Z,5.12
2023-03-05T18:21:42.871Z,5.08
2023-03-05T18:24:15.104Z,5.07
2023-03-05T18:26:44.724Z,5.03
2023-03-05T18:29:14.342Z,5.00
2023-03-05T18:31:43.921Z,4.98
2023-03-05T18:34:13.593Z,4.96
2023-03-05T18:36:43.173Z,4.89
2023-03-05T18:39:16.541Z,4.85
2023-03-05T18:41:46.155Z,4.78
2023-03-05T18:44:16.137Z,4.73
2023-03-05T18:46:45.726Z,4.70
2023-03-05T18:49:15.298Z,4.68
2023-03-05T18:51:45.762Z,4.64
2023-03-05T18:54:17.942Z,4.61
2023-03-05T18:56:47.546Z,4.57
2023-03-05T18:59:17.143Z,4.55
2023-03-05T19:01:46.891Z,4.52
2023-03-05T19:04:16.579Z,4.49
2023-03-05T19:06:46.177Z,4.48
2023-03-05T19:09:20.957Z,4.45
2023-03-05T19:11:50.840Z,4.41
2023-03-05T19:14:20.874Z,4.40
2023-03-05T19:16:50.458Z,4.37
2023-03-05T19:19:22.656Z,4.36
2023-03-05T19:21:54.102Z,4.33
2023-03-05T19:24:27.379Z,4.32
2023-03-05T19:27:00.298Z,4.30
2023-03-05T19:29:32.976Z,4.28
2023-03-05T19:32:02.790Z,4.26
2023-03-05T19:34:32.443Z,4.25
2023-03-05T19:37:02.099Z,4.23
2023-03-05T19:39:34.323Z,4.21
2023-03-05T19:42:04.227Z,4.18
2023-03-05T19:44:34.396Z,4.16
2023-03-05T19:47:04.229Z,4.14
2023-03-05T19:49:33.839Z,4.11
2023-03-05T19:52:04.272Z,4.09
2023-03-05T19:54:36.683Z,4.07
2023-03-05T19:57:06.915Z,4.06
2023-03-05T19:59:36.520Z,4.04
2023-03-05T20:02:06.206Z,4.02
2023-03-05T20:04:35.935Z,4.00
2023-03-05T20:07:07.142Z,3.99
2023-03-05T20:09:39.391Z,3.97
2023-03-05T20:12:10.377Z,3.94
2023-03-05T20:14:40.487Z,3.90
2023-03-05T20:17:10.139Z,3.88
2023-03-05T20:19:39.752Z,3.86
2023-03-05T20:22:09.378Z,3.83
2023-03-05T20:24:41.571Z,3.81
2023-03-05T20:27:11.192Z,3.80
2023-03-05T20:29:40.830Z,3.83
2023-03-05T20:32:10.431Z,3.86
2023-03-05T20:34:40.052Z,3.92
2023-03-05T20:37:09.677Z,3.98
2023-03-05T20:39:42.243Z,4.03
2023-03-05T20:42:11.893Z,4.05
2023-03-05T20:44:42.554Z,4.09
2023-03-05T20:47:28.085Z,4.10
2023-03-05T20:49:58.155Z,4.13
2023-03-05T20:52:27.733Z,4.16
2023-03-05T20:54:59.930Z,4.19
2023-03-05T20:57:29.589Z,4.20
2023-03-05T20:59:59.743Z,4.19
2023-03-05T21:02:29.622Z,4.21
2023-03-05T21:04:59.284Z,4.21
2023-03-05T21:07:29.727Z,4.21
2023-03-05T21:10:01.946Z,4.21
2023-03-05T21:12:31.629Z,4.21
2023-03-05T21:15:01.227Z,4.18
2023-03-05T21:17:30.839Z,4.17
2023-03-05T21:20:00.481Z,4.15
2023-03-05T21:22:30.075Z,4.15
2023-03-05T21:25:15.804Z,4.14
2023-03-05T21:27:45.549Z,4.12
2023-03-05T21:30:15.777Z,4.12
2023-03-05T21:32:45.366Z,4.12
2023-03-05T21:35:21.765Z,4.12
2023-03-05T21:37:52.638Z,4.15
2023-03-05T21:40:25.209Z,4.12
2023-03-05T21:42:55.669Z,4.10
2023-03-05T21:45:27.209Z,4.09
2023-03-05T21:47:58.637Z,4.09
2023-03-05T21:50:29.018Z,4.07
2023-03-05T21:52:58.962Z,4.04
2023-03-05T21:55:43.101Z,4.02
2023-03-05T21:58:12.732Z,3.99
2023-03-05T22:00:42.359Z,3.97
2023-03-05T22:03:12.016Z,3.95
2023-03-05T22:05:41.633Z,3.95
2023-03-05T22:08:11.243Z,3.94
2023-03-05T22:10:44.034Z,3.94
2023-03-05T22:13:17.883Z,3.93
2023-03-05T22:15:48.977Z,3.93
2023-03-05T22:18:20.132Z,3.93
2023-03-05T22:20:50.117Z,3.94
2023-03-05T22:23:22.212Z,3.94
2023-03-05T22:26:01.490Z,3.95
2023-03-05T22:28:31.643Z,3.95
2023-03-05T22:31:01.294Z,3.95
2023-03-05T22:33:31.480Z,3.96
2023-03-05T22:36:01.294Z,3.98
2023-03-05T22:38:31.060Z,3.98
2023-03-05T22:41:03.235Z,3.98
2023-03-05T22:43:32.803Z,3.98
2023-03-05T22:46:03.132Z,3.97
2023-03-05T22:48:32.744Z,3.94
2023-03-05T22:51:02.331Z,3.91
2023-03-05T22:53:31.959Z,3.87
2023-03-05T22:56:08.730Z,3.86
2023-03-05T22:58:38.856Z,3.86
2023-03-05T23:01:13.897Z,3.86
2023-03-05T23:03:44.416Z,3.85
2023-03-05T23:06:14.100Z,3.86
2023-03-05T23:08:43.676Z,3.86
2023-03-05T23:11:16.021Z,3.84
2023-03-05T23:13:45.610Z,3.80
2023-03-05T23:16:15.292Z,3.77
2023-03-05T23:18:44.918Z,3.75
2023-03-05T23:21:14.557Z,3.71
2023-03-05T23:23:44.331Z,3.68
2023-03-05T23:26:16.931Z,3.64
2023-03-05T23:28:46.508Z,3.61
2023-03-05T23:31:16.188Z,3.59
2023-03-05T23:33:45.799Z,3.54
2023-03-05T23:36:15.566Z,3.50
2023-03-05T23:38:45.262Z,3.46
2023-03-05T23:41:17.511Z,3.43
2023-03-05T23:43:47.105Z,3.40
2023-03-05T23:46:16.736Z,3.36
2023-03-05T23:48:46.366Z,3.36
2023-03-05T23:51:16.133Z,3.36
2023-03-05T23:53:45.727Z,3.36
2023-03-05T23:56:17.904Z,3.36
2023-03-05T23:58:47.545Z,3.36
